MSC Orchestra — 3EJF3 — position and weather

sailwx.info

Track history (hours):
 
Tides and Currents Weather Stations Pressure Air Temp Water Temp Dewpoint Dewpoint Depression Visibility Wind Speed Wind Dir Waves Ship Positions

MSC Orchestra

Last reported at 2017-Apr-26 04:02 UTC. Time now 2017-Apr-26 17:44 UTC.
Position N 40°46' E 002°12'.

Length 292 m.

Type: Ship. MMSI: 372497000.

Date/timePositionNaut miles runAvg speedWind from/ knotsBaromVisibWave heightAir tempDewpointWater temp
2017-Apr-26 04:02N 40°46' E 002°12'118.7
2017-Apr-26 04:00N 40°45' E 002°12'1018.2
2017-Apr-26 03:27N 40°35' E 002°12'818.0
2017-Apr-26 03:00N 40°27' E 002°12'917.9
2017-Apr-26 02:30N 40°18' E 002°13'918.3
2017-Apr-26 02:00N 40°09' E 002°13'918.3
2017-Apr-26 01:30N 39°60' E 002°13'918.5
2017-Apr-26 01:00N 39°51' E 002°14'1018.6
2017-Apr-26 00:30N 39°41' E 002°15'918.4
2017-Apr-26 00:00N 39°32' E 002°17'919.0
2017-Apr-25 23:30N 39°26' E 002°27'917.5
2017-Apr-25 23:00N 39°30' E 002°37'3 5.5
2017-Apr-25 22:28N 39°33' E 002°38'0 0.2
2017-Apr-25 21:58N 39°33' E 002°38'0 0.0
2017-Apr-25 21:28N 39°33' E 002°38'0 0.0
2017-Apr-25 20:58N 39°33' E 002°38'0 0.0
2017-Apr-25 20:28N 39°33' E 002°38'0 0.0
2017-Apr-25 20:00N 39°33' E 002°38'0 0.0
2017-Apr-25 19:30N 39°33' E 002°38'0 0.0
2017-Apr-25 19:00N 39°33' E 002°38'0 0.0
2017-Apr-25 18:30N 39°33' E 002°38'0 0.0
2017-Apr-25 17:59N 39°33' E 002°38'0 0.0
2017-Apr-25 17:29N 39°33' E 002°38'0 0.0
2017-Apr-25 16:59N 39°33' E 002°38'0 0.0
2017-Apr-25 16:29N 39°33' E 002°38'0 0.0
2017-Apr-25 15:59N 39°33' E 002°38'0 0.0
2017-Apr-25 15:28N 39°33' E 002°38'0 0.0
2017-Apr-25 14:55N 39°33' E 002°38'0 0.0
2017-Apr-25 14:28N 39°33' E 002°38'0 0.0
2017-Apr-25 13:28N 39°33' E 002°38'0 0.0
2017-Apr-25 13:00N 39°33' E 002°38'0 0.0
2017-Apr-25 12:27N 39°33' E 002°38'0 0.0
2017-Apr-25 12:00N 39°33' E 002°38'0 0.0
2017-Apr-25 11:30N 39°33' E 002°38'1 1.9
2017-Apr-25 11:00N 39°33' E 002°39'4 8.9
2017-Apr-25 10:30N 39°29' E 002°36'713.1
2017-Apr-25 10:00N 39°26' E 002°29'714.6
2017-Apr-25 09:30N 39°30' E 002°21'714.0
2017-Apr-25 08:58N 39°36' E 002°16'714.7
2017-Apr-25 08:30N 39°42' E 002°22'815.6
2017-Apr-25 08:00N 39°47' E 002°29'815.6
2017-Apr-25 07:30N 39°53' E 002°36'816.0
2017-Apr-25 07:00N 39°58' E 002°44'815.9
2017-Apr-25 06:30N 40°04' E 002°51'815.7
2017-Apr-25 06:00N 40°09' E 002°58'916.9
2017-Apr-25 05:30N 40°15' E 003°06'1018.6
2017-Apr-25 04:58N 40°22' E 003°16'12417.7
2017-Apr-24 21:58N 41°53' E 005°08'817.7
2017-Apr-24 21:30N 41°59' E 005°16'11617.0
2017-Apr-24 14:41N 43°26' E 006°59'317.6
2017-Apr-24 14:30N 43°29' E 006°60'3 2.9
2017-Apr-24 13:30N 43°32' E 007°01'0 0.0
2017-Apr-24 13:00N 43°32' E 007°01'0 0.0
2017-Apr-24 12:30N 43°32' E 007°01'0 0.0
2017-Apr-24 11:54N 43°32' E 007°01'0 0.0
2017-Apr-24 11:29N 43°32' E 007°01'0 0.0
2017-Apr-24 10:56N 43°32' E 007°01'0 0.1
2017-Apr-24 10:29N 43°32' E 007°01'0 0.0
2017-Apr-24 09:53N 43°32' E 007°01'0 0.0
2017-Apr-24 09:29N 43°32' E 007°01'0 0.0
2017-Apr-24 08:58N 43°32' E 007°01'0 0.0
2017-Apr-24 08:28N 43°32' E 007°01'0 0.0
2017-Apr-24 07:58N 43°32' E 007°01'0 0.1
2017-Apr-24 07:25N 43°32' E 007°01'0 0.0
2017-Apr-24 07:01N 43°32' E 007°01'0 0.1
2017-Apr-24 06:30N 43°32' E 007°01'0 0.0
2017-Apr-24 06:00N 43°32' E 007°01'0 0.0
2017-Apr-24 05:30N 43°32' E 007°01'0 0.0
2017-Apr-24 05:00N 43°32' E 007°01'0 0.5
2017-Apr-24 04:30N 43°32' E 007°01'3 5.1
2017-Apr-24 04:00N 43°29' E 007°01'4 7.8
2017-Apr-24 03:30N 43°27' E 007°05'4 8.3
2017-Apr-24 03:00N 43°28' E 007°11'4 8.2
2017-Apr-24 02:31N 43°29' E 007°16'4 8.5
2017-Apr-24 02:00N 43°30' E 007°22'4 8.7
2017-Apr-24 01:30N 43°31' E 007°28'4 8.8
2017-Apr-24 01:00N 43°32' E 007°34'4 8.9
2017-Apr-24 00:30N 43°33' E 007°40'4 8.9
2017-Apr-24 00:00N 43°34' E 007°46'4 8.8
2017-Apr-23 23:30N 43°35' E 007°52'5 8.8
2017-Apr-23 22:55N 43°37' E 007°58'4 8.8
2017-Apr-23 22:31N 43°38' E 008°03'5 9.0
2017-Apr-23 21:59N 43°40' E 008°09'4 9.5
2017-Apr-23 21:30N 43°42' E 008°14'5 9.3
2017-Apr-23 21:00N 43°45' E 008°20'5 9.6
2017-Apr-23 20:30N 43°48' E 008°24'5 9.7
2017-Apr-23 20:01N 43°52' E 008°28'5 9.5
2017-Apr-23 19:30N 43°56' E 008°32'5 9.7
2017-Apr-23 19:00N 43°60' E 008°36'5 9.9
2017-Apr-23 18:30N 44°04' E 008°40'510.6
2017-Apr-23 18:00N 44°08' E 008°45'511.0
2017-Apr-23 17:30N 44°12' E 008°49'611.2
2017-Apr-23 17:00N 44°17' E 008°54'510.8
2017-Apr-23 16:30N 44°22' E 008°57'3 6.8
2017-Apr-23 16:00N 44°25' E 008°55'0 0.0
2017-Apr-23 15:30N 44°25' E 008°55'0 0.0
2017-Apr-23 10:28N 44°25' E 008°55'0 0.0
2017-Apr-23 09:52N 44°25' E 008°55'0 0.0
2017-Apr-23 09:21N 44°25' E 008°55'0 0.0
2017-Apr-23 09:00N 44°25' E 008°55'0 0.0
2017-Apr-23 08:30N 44°25' E 008°55'0 0.0
2017-Apr-23 07:57N 44°25' E 008°55'0 0.0
2017-Apr-23 07:23N 44°25' E 008°55'0 0.0
2017-Apr-23 06:50N 44°25' E 008°55'0 0.0
2017-Apr-23 06:30N 44°25' E 008°55'1 1.9
2017-Apr-23 06:01N 44°24' E 008°55'2 4.4
2017-Apr-23 05:31N 44°22' E 008°58'4 8.6
2017-Apr-23 05:01N 44°19' E 009°00'815.1
2017-Apr-23 04:30N 44°12' E 009°06'816.4
2017-Apr-23 04:00N 44°05' E 009°11'816.5
2017-Apr-23 03:30N 43°58' E 009°17'816.6
2017-Apr-23 03:00N 43°51' E 009°23'816.7
2017-Apr-23 02:30N 43°43' E 009°29'816.6
2017-Apr-23 02:00N 43°36' E 009°34'816.6
2017-Apr-23 01:30N 43°29' E 009°40'816.8
2017-Apr-23 01:00N 43°22' E 009°46'816.7
2017-Apr-23 00:30N 43°14' E 009°52'816.5
2017-Apr-23 00:00N 43°07' E 009°57'816.0
2017-Apr-22 23:30N 42°60' E 010°01'2115.9
2017-Apr-22 22:10N 42°39' E 010°09'517.3
2017-Apr-22 21:54N 42°36' E 010°14'717.4
2017-Apr-22 21:28N 42°32' E 010°22'1117.3
2017-Apr-22 20:50N 42°25' E 010°33'358 8.7
2017-Apr-21 03:40N 39°25' E 003°43'517.9
2017-Apr-21 03:25N 39°23' E 003°37'717.9
2017-Apr-21 03:00N 39°20' E 003°29'917.9
2017-Apr-21 02:30N 39°17' E 003°18'917.7
2017-Apr-21 02:00N 39°13' E 003°08'817.0
2017-Apr-21 01:30N 39°15' E 002°57'917.6
2017-Apr-21 01:00N 39°19' E 002°47'816.7
2017-Apr-21 00:30N 39°25' E 002°40'815.8
2017-Apr-21 00:00N 39°33' E 002°39'0 0.8
2017-Apr-20 23:30N 39°33' E 002°38'0 0.0
2017-Apr-20 23:00N 39°33' E 002°38'0 0.0
2017-Apr-20 21:54N 39°33' E 002°38'0 0.0
2017-Apr-20 21:29N 39°33' E 002°38'0 0.0
2017-Apr-20 20:59N 39°33' E 002°38'0 0.0
2017-Apr-20 20:29N 39°33' E 002°38'0 0.0
2017-Apr-20 19:59N 39°33' E 002°38'0 0.0
2017-Apr-20 19:29N 39°33' E 002°38'0 0.0
2017-Apr-20 18:58N 39°33' E 002°38'0 0.0
2017-Apr-20 17:52N 39°33' E 002°38'0 0.0
2017-Apr-20 17:28N 39°33' E 002°38'0 0.0
2017-Apr-20 16:57N 39°33' E 002°38'0 0.0
2017-Apr-20 16:30N 39°33' E 002°38'0 0.0
2017-Apr-20 16:00N 39°33' E 002°38'0 0.0
2017-Apr-20 15:30N 39°33' E 002°38'0 0.0
2017-Apr-20 15:00N 39°33' E 002°38'0 0.0
2017-Apr-20 14:26N 39°33' E 002°38'0 0.0
2017-Apr-20 13:29N 39°33' E 002°38'0 0.0
2017-Apr-20 07:38N 39°33' E 002°38'0 0.0
2017-Apr-20 07:29N 39°33' E 002°38'0 0.0
2017-Apr-20 06:59N 39°33' E 002°38'0 0.0
2017-Apr-20 06:30N 39°33' E 002°38'2 3.5
2017-Apr-20 06:00N 39°32' E 002°38'611.2
2017-Apr-20 05:30N 39°27' E 002°34'612.4
2017-Apr-20 05:01N 39°26' E 002°26'915.4
2017-Apr-20 04:26N 39°32' E 002°18'715.5
2017-Apr-20 04:00N 39°39' E 002°15'917.1
2017-Apr-20 03:30N 39°47' E 002°14'917.3
2017-Apr-20 03:00N 39°56' E 002°14'917.2
2017-Apr-20 02:30N 40°04' E 002°13'917.3
2017-Apr-20 02:01N 40°13' E 002°13'917.6
2017-Apr-20 01:30N 40°22' E 002°12'917.5
2017-Apr-20 01:00N 40°31' E 002°12'917.6
2017-Apr-20 00:30N 40°39' E 002°12'917.4
2017-Apr-20 00:00N 40°48' E 002°11'917.2
2017-Apr-19 23:30N 40°57' E 002°10'917.2
2017-Apr-19 23:00N 41°05' E 002°10'149 7.4
2017-Apr-19 02:48N 42°53' E 004°29'2719.7
2017-Apr-19 01:27N 42°55' E 005°05'8719.9
2017-Apr-18 21:03N 43°08' E 007°03'120.4
2017-Apr-18 21:00N 43°09' E 007°04'1021.0
2017-Apr-18 20:30N 43°16' E 007°15'1121.9
2017-Apr-18 20:00N 43°23' E 007°27'1122.1
2017-Apr-18 19:30N 43°30' E 007°38'1122.2
2017-Apr-18 19:00N 43°37' E 007°50'1122.1
2017-Apr-18 18:30N 43°44' E 008°02'1422.0
2017-Apr-18 17:52N 43°53' E 008°16'821.6
2017-Apr-18 17:30N 43°59' E 008°24'1121.3
2017-Apr-18 17:00N 44°05' E 008°36'1121.0
2017-Apr-18 16:30N 44°12' E 008°47'1020.7
2017-Apr-18 16:00N 44°19' E 008°58'5 9.9
2017-Apr-18 15:30N 44°24' E 008°55'1 1.5
2017-Apr-18 15:00N 44°25' E 008°55'0 0.0
2017-Apr-18 14:30N 44°25' E 008°55'0 0.0
2017-Apr-18 13:26N 44°25' E 008°55'0 0.0
2017-Apr-18 12:50N 44°25' E 008°55'0 0.0
2017-Apr-18 12:29N 44°25' E 008°55'0 0.0
2017-Apr-18 11:59N 44°25' E 008°55'0 0.0
2017-Apr-18 11:29N 44°25' E 008°55'0 0.0
2017-Apr-18 10:55N 44°25' E 008°55'0 0.0
2017-Apr-18 10:19N 44°25' E 008°55'0 0.0
2017-Apr-18 09:58N 44°25' E 008°55'0 0.0
2017-Apr-18 09:28N 44°25' E 008°55'0 0.0
2017-Apr-18 08:58N 44°25' E 008°55'0 0.0
2017-Apr-18 08:21N 44°25' E 008°55'0 0.0
2017-Apr-18 08:00N 44°25' E 008°55'0 0.0
2017-Apr-18 07:30N 44°25' E 008°55'0 0.0
2017-Apr-18 07:00N 44°25' E 008°55'0 0.0
2017-Apr-18 06:23N 44°25' E 008°55'0 0.0
2017-Apr-18 05:50N 44°25' E 008°55'0 0.0
2017-Apr-18 05:11N 44°25' E 008°55'0 0.6
2017-Apr-18 05:00N 44°25' E 008°55'2 4.8
2017-Apr-18 04:30N 44°23' E 008°57'611.8
2017-Apr-18 04:00N 44°18' E 009°01'918.5
2017-Apr-18 03:30N 44°10' E 009°08'918.7
2017-Apr-18 03:00N 44°02' E 009°14'919.0
2017-Apr-18 02:30N 43°53' E 009°21'918.8
2017-Apr-18 02:00N 43°45' E 009°27'918.9
2017-Apr-18 01:30N 43°37' E 009°34'918.9
2017-Apr-18 01:00N 43°29' E 009°40'918.9
2017-Apr-18 00:30N 43°21' E 009°47'918.5
2017-Apr-18 00:00N 43°13' E 009°53'918.2
2017-Apr-17 23:30N 43°05' E 009°59'917.9
2017-Apr-17 22:59N 42°56' E 010°02'1717.2
2017-Apr-17 21:59N 42°39' E 010°09'918.5
2017-Apr-17 21:30N 42°34' E 010°18'1418.2
2017-Apr-17 20:44N 42°25' E 010°33'29310.0
2017-Apr-16 15:24N 38°54' E 015°00'817.7
2017-Apr-16 14:58N 38°48' E 015°07'1717.2
2017-Apr-16 14:00N 38°36' E 015°21'917.2
2017-Apr-16 13:30N 38°30' E 015°29'917.6
2017-Apr-16 13:00N 38°23' E 015°36'816.0
2017-Apr-16 12:29N 38°16' E 015°42'714.1
2017-Apr-16 12:00N 38°12' E 015°34'1 1.6
2017-Apr-16 11:26N 38°12' E 015°33'0 0.0
2017-Apr-16 10:56N 38°12' E 015°33'0 0.0
2017-Apr-16 10:26N 38°12' E 015°33'0 0.0
2017-Apr-16 09:49N 38°12' E 015°33'0 0.0
2017-Apr-16 09:25N 38°12' E 015°33'0 0.0
2017-Apr-16 08:55N 38°12' E 015°33'0 0.0
2017-Apr-16 08:25N 38°12' E 015°33'0 0.0
2017-Apr-16 08:00N 38°12' E 015°33'0 0.0
2017-Apr-16 07:30N 38°12' E 015°33'0 0.0
2017-Apr-16 06:54N 38°12' E 015°33'0 0.0
2017-Apr-16 06:30N 38°12' E 015°33'0 0.0
2017-Apr-16 06:00N 38°12' E 015°33'0 0.0
2017-Apr-16 05:30N 38°12' E 015°34'2 3.2
2017-Apr-16 05:00N 38°13' E 015°35'3 6.7
2017-Apr-16 04:30N 38°10' E 015°37'  
Track history (hours):
 
Tides and Currents Weather Stations Pressure Air Temp Water Temp Dewpoint Dewpoint Depression Visibility Wind Speed Wind Dir Waves Ship Positions

MSC Orchestra

Last reported at 2017-Apr-26 04:02 UTC. Time now 2017-Apr-26 17:44 UTC.
Position N 40°46' E 002°12'.

Length 292 m.

Type: Ship. MMSI: 372497000.

Date/timePositionNaut miles runAvg speedWind from/ knotsBaromVisibWave heightAir tempDewpointWater temp
2017-Apr-26 04:02N 40°46' E 002°12'118.7
2017-Apr-26 04:00N 40°45' E 002°12'1018.2
2017-Apr-26 03:27N 40°35' E 002°12'818.0
2017-Apr-26 03:00N 40°27' E 002°12'917.9
2017-Apr-26 02:30N 40°18' E 002°13'918.3
2017-Apr-26 02:00N 40°09' E 002°13'918.3
2017-Apr-26 01:30N 39°60' E 002°13'918.5
2017-Apr-26 01:00N 39°51' E 002°14'1018.6
2017-Apr-26 00:30N 39°41' E 002°15'918.4
2017-Apr-26 00:00N 39°32' E 002°17'919.0
2017-Apr-25 23:30N 39°26' E 002°27'917.5
2017-Apr-25 23:00N 39°30' E 002°37'3 5.5
2017-Apr-25 22:28N 39°33' E 002°38'0 0.2
2017-Apr-25 21:58N 39°33' E 002°38'0 0.0
2017-Apr-25 21:28N 39°33' E 002°38'0 0.0
2017-Apr-25 20:58N 39°33' E 002°38'0 0.0
2017-Apr-25 20:28N 39°33' E 002°38'0 0.0
2017-Apr-25 20:00N 39°33' E 002°38'0 0.0
2017-Apr-25 19:30N 39°33' E 002°38'0 0.0
2017-Apr-25 19:00N 39°33' E 002°38'0 0.0
2017-Apr-25 18:30N 39°33' E 002°38'0 0.0
2017-Apr-25 17:59N 39°33' E 002°38'0 0.0
2017-Apr-25 17:29N 39°33' E 002°38'0 0.0
2017-Apr-25 16:59N 39°33' E 002°38'0 0.0
2017-Apr-25 16:29N 39°33' E 002°38'0 0.0
2017-Apr-25 15:59N 39°33' E 002°38'0 0.0
2017-Apr-25 15:28N 39°33' E 002°38'0 0.0
2017-Apr-25 14:55N 39°33' E 002°38'0 0.0
2017-Apr-25 14:28N 39°33' E 002°38'0 0.0
2017-Apr-25 13:28N 39°33' E 002°38'0 0.0
2017-Apr-25 13:00N 39°33' E 002°38'0 0.0
2017-Apr-25 12:27N 39°33' E 002°38'0 0.0
2017-Apr-25 12:00N 39°33' E 002°38'0 0.0
2017-Apr-25 11:30N 39°33' E 002°38'1 1.9
2017-Apr-25 11:00N 39°33' E 002°39'4 8.9
2017-Apr-25 10:30N 39°29' E 002°36'713.1
2017-Apr-25 10:00N 39°26' E 002°29'714.6
2017-Apr-25 09:30N 39°30' E 002°21'714.0
2017-Apr-25 08:58N 39°36' E 002°16'714.7
2017-Apr-25 08:30N 39°42' E 002°22'815.6
2017-Apr-25 08:00N 39°47' E 002°29'815.6
2017-Apr-25 07:30N 39°53' E 002°36'816.0
2017-Apr-25 07:00N 39°58' E 002°44'815.9
2017-Apr-25 06:30N 40°04' E 002°51'815.7
2017-Apr-25 06:00N 40°09' E 002°58'916.9
2017-Apr-25 05:30N 40°15' E 003°06'1018.6
2017-Apr-25 04:58N 40°22' E 003°16'12417.7
2017-Apr-24 21:58N 41°53' E 005°08'817.7
2017-Apr-24 21:30N 41°59' E 005°16'11617.0
2017-Apr-24 14:41N 43°26' E 006°59'317.6
2017-Apr-24 14:30N 43°29' E 006°60'3 2.9
2017-Apr-24 13:30N 43°32' E 007°01'0 0.0
2017-Apr-24 13:00N 43°32' E 007°01'0 0.0
2017-Apr-24 12:30N 43°32' E 007°01'0 0.0
2017-Apr-24 11:54N 43°32' E 007°01'0 0.0
2017-Apr-24 11:29N 43°32' E 007°01'0 0.0
2017-Apr-24 10:56N 43°32' E 007°01'0 0.1
2017-Apr-24 10:29N 43°32' E 007°01'0 0.0
2017-Apr-24 09:53N 43°32' E 007°01'0 0.0
2017-Apr-24 09:29N 43°32' E 007°01'0 0.0
2017-Apr-24 08:58N 43°32' E 007°01'0 0.0
2017-Apr-24 08:28N 43°32' E 007°01'0 0.0
2017-Apr-24 07:58N 43°32' E 007°01'0 0.1
2017-Apr-24 07:25N 43°32' E 007°01'0 0.0
2017-Apr-24 07:01N 43°32' E 007°01'0 0.1
2017-Apr-24 06:30N 43°32' E 007°01'0 0.0
2017-Apr-24 06:00N 43°32' E 007°01'0 0.0
2017-Apr-24 05:30N 43°32' E 007°01'0 0.0
2017-Apr-24 05:00N 43°32' E 007°01'0 0.5
2017-Apr-24 04:30N 43°32' E 007°01'3 5.1
2017-Apr-24 04:00N 43°29' E 007°01'4 7.8
2017-Apr-24 03:30N 43°27' E 007°05'4 8.3
2017-Apr-24 03:00N 43°28' E 007°11'4 8.2
2017-Apr-24 02:31N 43°29' E 007°16'4 8.5
2017-Apr-24 02:00N 43°30' E 007°22'4 8.7
2017-Apr-24 01:30N 43°31' E 007°28'4 8.8
2017-Apr-24 01:00N 43°32' E 007°34'4 8.9
2017-Apr-24 00:30N 43°33' E 007°40'4 8.9
2017-Apr-24 00:00N 43°34' E 007°46'4 8.8
2017-Apr-23 23:30N 43°35' E 007°52'5 8.8
2017-Apr-23 22:55N 43°37' E 007°58'4 8.8
2017-Apr-23 22:31N 43°38' E 008°03'5 9.0
2017-Apr-23 21:59N 43°40' E 008°09'4 9.5
2017-Apr-23 21:30N 43°42' E 008°14'5 9.3
2017-Apr-23 21:00N 43°45' E 008°20'5 9.6
2017-Apr-23 20:30N 43°48' E 008°24'5 9.7
2017-Apr-23 20:01N 43°52' E 008°28'5 9.5
2017-Apr-23 19:30N 43°56' E 008°32'5 9.7
2017-Apr-23 19:00N 43°60' E 008°36'5 9.9
2017-Apr-23 18:30N 44°04' E 008°40'510.6
2017-Apr-23 18:00N 44°08' E 008°45'511.0
2017-Apr-23 17:30N 44°12' E 008°49'611.2
2017-Apr-23 17:00N 44°17' E 008°54'510.8
2017-Apr-23 16:30N 44°22' E 008°57'3 6.8
2017-Apr-23 16:00N 44°25' E 008°55'0 0.0
2017-Apr-23 15:30N 44°25' E 008°55'0 0.0
2017-Apr-23 10:28N 44°25' E 008°55'0 0.0
2017-Apr-23 09:52N 44°25' E 008°55'0 0.0
2017-Apr-23 09:21N 44°25' E 008°55'0 0.0
2017-Apr-23 09:00N 44°25' E 008°55'0 0.0
2017-Apr-23 08:30N 44°25' E 008°55'0 0.0
2017-Apr-23 07:57N 44°25' E 008°55'0 0.0
2017-Apr-23 07:23N 44°25' E 008°55'0 0.0
2017-Apr-23 06:50N 44°25' E 008°55'0 0.0
2017-Apr-23 06:30N 44°25' E 008°55'1 1.9
2017-Apr-23 06:01N 44°24' E 008°55'2 4.4
2017-Apr-23 05:31N 44°22' E 008°58'4 8.6
2017-Apr-23 05:01N 44°19' E 009°00'815.1
2017-Apr-23 04:30N 44°12' E 009°06'816.4
2017-Apr-23 04:00N 44°05' E 009°11'816.5
2017-Apr-23 03:30N 43°58' E 009°17'816.6
2017-Apr-23 03:00N 43°51' E 009°23'816.7
2017-Apr-23 02:30N 43°43' E 009°29'816.6
2017-Apr-23 02:00N 43°36' E 009°34'816.6
2017-Apr-23 01:30N 43°29' E 009°40'816.8
2017-Apr-23 01:00N 43°22' E 009°46'816.7
2017-Apr-23 00:30N 43°14' E 009°52'816.5
2017-Apr-23 00:00N 43°07' E 009°57'816.0
2017-Apr-22 23:30N 42°60' E 010°01'2115.9
2017-Apr-22 22:10N 42°39' E 010°09'517.3
2017-Apr-22 21:54N 42°36' E 010°14'717.4
2017-Apr-22 21:28N 42°32' E 010°22'1117.3
2017-Apr-22 20:50N 42°25' E 010°33'358 8.7
2017-Apr-21 03:40N 39°25' E 003°43'517.9
2017-Apr-21 03:25N 39°23' E 003°37'717.9
2017-Apr-21 03:00N 39°20' E 003°29'917.9
2017-Apr-21 02:30N 39°17' E 003°18'917.7
2017-Apr-21 02:00N 39°13' E 003°08'817.0
2017-Apr-21 01:30N 39°15' E 002°57'917.6
2017-Apr-21 01:00N 39°19' E 002°47'816.7
2017-Apr-21 00:30N 39°25' E 002°40'815.8
2017-Apr-21 00:00N 39°33' E 002°39'0 0.8
2017-Apr-20 23:30N 39°33' E 002°38'0 0.0
2017-Apr-20 23:00N 39°33' E 002°38'0 0.0
2017-Apr-20 21:54N 39°33' E 002°38'0 0.0
2017-Apr-20 21:29N 39°33' E 002°38'0 0.0
2017-Apr-20 20:59N 39°33' E 002°38'0 0.0
2017-Apr-20 20:29N 39°33' E 002°38'0 0.0
2017-Apr-20 19:59N 39°33' E 002°38'0 0.0
2017-Apr-20 19:29N 39°33' E 002°38'0 0.0
2017-Apr-20 18:58N 39°33' E 002°38'0 0.0
2017-Apr-20 17:52N 39°33' E 002°38'0 0.0
2017-Apr-20 17:28N 39°33' E 002°38'0 0.0
2017-Apr-20 16:57N 39°33' E 002°38'0 0.0
2017-Apr-20 16:30N 39°33' E 002°38'0 0.0
2017-Apr-20 16:00N 39°33' E 002°38'0 0.0
2017-Apr-20 15:30N 39°33' E 002°38'0 0.0
2017-Apr-20 15:00N 39°33' E 002°38'0 0.0
2017-Apr-20 14:26N 39°33' E 002°38'0 0.0
2017-Apr-20 13:29N 39°33' E 002°38'0 0.0
2017-Apr-20 07:38N 39°33' E 002°38'0 0.0
2017-Apr-20 07:29N 39°33' E 002°38'0 0.0
2017-Apr-20 06:59N 39°33' E 002°38'0 0.0
2017-Apr-20 06:30N 39°33' E 002°38'2 3.5
2017-Apr-20 06:00N 39°32' E 002°38'611.2
2017-Apr-20 05:30N 39°27' E 002°34'612.4
2017-Apr-20 05:01N 39°26' E 002°26'915.4
2017-Apr-20 04:26N 39°32' E 002°18'715.5
2017-Apr-20 04:00N 39°39' E 002°15'917.1
2017-Apr-20 03:30N 39°47' E 002°14'917.3
2017-Apr-20 03:00N 39°56' E 002°14'917.2
2017-Apr-20 02:30N 40°04' E 002°13'917.3
2017-Apr-20 02:01N 40°13' E 002°13'917.6
2017-Apr-20 01:30N 40°22' E 002°12'917.5
2017-Apr-20 01:00N 40°31' E 002°12'917.6
2017-Apr-20 00:30N 40°39' E 002°12'917.4
2017-Apr-20 00:00N 40°48' E 002°11'917.2
2017-Apr-19 23:30N 40°57' E 002°10'917.2
2017-Apr-19 23:00N 41°05' E 002°10'149 7.4
2017-Apr-19 02:48N 42°53' E 004°29'2719.7
2017-Apr-19 01:27N 42°55' E 005°05'8719.9
2017-Apr-18 21:03N 43°08' E 007°03'120.4
2017-Apr-18 21:00N 43°09' E 007°04'1021.0
2017-Apr-18 20:30N 43°16' E 007°15'1121.9
2017-Apr-18 20:00N 43°23' E 007°27'1122.1
2017-Apr-18 19:30N 43°30' E 007°38'1122.2
2017-Apr-18 19:00N 43°37' E 007°50'1122.1
2017-Apr-18 18:30N 43°44' E 008°02'1422.0
2017-Apr-18 17:52N 43°53' E 008°16'821.6
2017-Apr-18 17:30N 43°59' E 008°24'1121.3
2017-Apr-18 17:00N 44°05' E 008°36'1121.0
2017-Apr-18 16:30N 44°12' E 008°47'1020.7
2017-Apr-18 16:00N 44°19' E 008°58'5 9.9
2017-Apr-18 15:30N 44°24' E 008°55'1 1.5
2017-Apr-18 15:00N 44°25' E 008°55'0 0.0
2017-Apr-18 14:30N 44°25' E 008°55'0 0.0
2017-Apr-18 13:26N 44°25' E 008°55'0 0.0
2017-Apr-18 12:50N 44°25' E 008°55'0 0.0
2017-Apr-18 12:29N 44°25' E 008°55'0 0.0
2017-Apr-18 11:59N 44°25' E 008°55'0 0.0
2017-Apr-18 11:29N 44°25' E 008°55'0 0.0
2017-Apr-18 10:55N 44°25' E 008°55'0 0.0
2017-Apr-18 10:19N 44°25' E 008°55'0 0.0
2017-Apr-18 09:58N 44°25' E 008°55'0 0.0
2017-Apr-18 09:28N 44°25' E 008°55'0 0.0
2017-Apr-18 08:58N 44°25' E 008°55'0 0.0
2017-Apr-18 08:21N 44°25' E 008°55'0 0.0
2017-Apr-18 08:00N 44°25' E 008°55'0 0.0
2017-Apr-18 07:30N 44°25' E 008°55'0 0.0
2017-Apr-18 07:00N 44°25' E 008°55'0 0.0
2017-Apr-18 06:23N 44°25' E 008°55'0 0.0
2017-Apr-18 05:50N 44°25' E 008°55'0 0.0
2017-Apr-18 05:11N 44°25' E 008°55'0 0.6
2017-Apr-18 05:00N 44°25' E 008°55'2 4.8
2017-Apr-18 04:30N 44°23' E 008°57'611.8
2017-Apr-18 04:00N 44°18' E 009°01'918.5
2017-Apr-18 03:30N 44°10' E 009°08'918.7
2017-Apr-18 03:00N 44°02' E 009°14'919.0
2017-Apr-18 02:30N 43°53' E 009°21'918.8
2017-Apr-18 02:00N 43°45' E 009°27'918.9
2017-Apr-18 01:30N 43°37' E 009°34'918.9
2017-Apr-18 01:00N 43°29' E 009°40'918.9
2017-Apr-18 00:30N 43°21' E 009°47'918.5
2017-Apr-18 00:00N 43°13' E 009°53'918.2
2017-Apr-17 23:30N 43°05' E 009°59'917.9
2017-Apr-17 22:59N 42°56' E 010°02'1717.2
2017-Apr-17 21:59N 42°39' E 010°09'918.5
2017-Apr-17 21:30N 42°34' E 010°18'1418.2
2017-Apr-17 20:44N 42°25' E 010°33'29310.0
2017-Apr-16 15:24N 38°54' E 015°00'817.7
2017-Apr-16 14:58N 38°48' E 015°07'1717.2
2017-Apr-16 14:00N 38°36' E 015°21'917.2
2017-Apr-16 13:30N 38°30' E 015°29'917.6
2017-Apr-16 13:00N 38°23' E 015°36'816.0
2017-Apr-16 12:29N 38°16' E 015°42'714.1
2017-Apr-16 12:00N 38°12' E 015°34'1 1.6
2017-Apr-16 11:26N 38°12' E 015°33'0 0.0
2017-Apr-16 10:56N 38°12' E 015°33'0 0.0
2017-Apr-16 10:26N 38°12' E 015°33'0 0.0
2017-Apr-16 09:49N 38°12' E 015°33'0 0.0
2017-Apr-16 09:25N 38°12' E 015°33'0 0.0
2017-Apr-16 08:55N 38°12' E 015°33'0 0.0
2017-Apr-16 08:25N 38°12' E 015°33'0 0.0
2017-Apr-16 08:00N 38°12' E 015°33'0 0.0
2017-Apr-16 07:30N 38°12' E 015°33'0 0.0
2017-Apr-16 06:54N 38°12' E 015°33'0 0.0
2017-Apr-16 06:30N 38°12' E 015°33'0 0.0
2017-Apr-16 06:00N 38°12' E 015°33'0 0.0
2017-Apr-16 05:30N 38°12' E 015°34'2 3.2
2017-Apr-16 05:00N 38°13' E 015°35'3 6.7
2017-Apr-16 04:30N 38°10' E 015°37'  

Dump ship's entire track history